Time;durP1;ratioP1;P1;durP2;ratioP2;P2;SDS_P1;SDS_P2;PMS_P1;PMS_P2;Temp;Humidity;BMP_temperature;BMP_pressure;BME280_temperature;BME280_humidity;BME280_pressure;Samples;Min_cycle;Max_cycle;Signal;HPM_P1;HPM_P2
2023/05/17 00:02:22;;;;;;;;;;;;;;;10.09;91.85;100584.78;5089232;28;19912;-58
2023/05/17 00:04:48;;;;;;;;;;;;;;;10.06;92.54;100584.81;5072731;28;20327;-58
2023/05/17 00:07:13;;;;;;;;;;;;;;;10.04;92.41;100583.97;5069041;28;19912;-58
2023/05/17 00:09:38;;;;;;;;;;;;;;;10.01;92.11;100585.81;5068340;28;19921;-58
2023/05/17 00:12:04;;;;;;;;;;;;;;;9.99;91.84;100579.66;5068656;28;20380;-58
2023/05/17 00:14:29;;;;;;;;;;;;;;;9.98;92.51;100585.88;5066014;28;19924;-58
2023/05/17 00:16:54;;;;;;;;;;;;;;;9.96;92.77;100583.25;5069149;28;19920;-58
2023/05/17 00:19:19;;;;;;;;;;;;;;;9.94;91.66;100585.06;5068227;28;19985;-58
2023/05/17 00:21:45;;;;;;;;;;;;;;;9.94;92.07;100584.19;5072840;28;19923;-58
2023/05/17 00:24:10;;;;;;;;;;;;;;;9.90;92.50;100587.84;5071897;28;19916;-58
2023/05/17 00:26:35;;;;;;;;;;;;;;;9.88;93.28;100585.22;5065307;28;19920;-58
2023/05/17 00:29:01;;;;;;;;;;;;;;;9.83;93.07;100586.19;5072654;28;19939;-58
2023/05/17 00:31:26;;;;;;;;;;;;;;;9.82;93.63;100592.44;5071925;28;19923;-58
2023/05/17 00:33:51;;;;;;;;;;;;;;;9.79;93.40;100595.13;5072325;28;19962;-58
2023/05/17 00:36:16;;;;;;;;;;;;;;;9.77;93.88;100595.16;5072025;28;20280;-58
2023/05/17 00:38:42;;;;;;;;;;;;;;;9.75;94.17;100604.94;5054448;28;20011;-58
2023/05/17 00:41:07;;;;;;;;;;;;;;;9.73;94.35;100604.13;5072601;28;19972;-58
2023/05/17 00:43:32;;;;;;;;;;;;;;;9.71;94.76;100605.91;5071742;28;19974;-58
2023/05/17 00:45:57;;;;;;;;;;;;;;;9.71;94.44;100608.56;5075021;28;20435;-58
2023/05/17 00:48:26;;;;;;;;;;;;;;;9.69;94.27;100610.38;5071137;28;19947;-58
2023/05/17 00:50:55;;;;;;;;;;;;;;;9.65;94.80;100607.81;5072158;28;19917;-58
2023/05/17 00:53:20;;;;;;;;;;;;;;;9.63;94.85;100610.50;5068878;28;19951;-58
2023/05/17 00:55:45;;;;;;;;;;;;;;;9.65;94.67;100613.13;5071118;28;19955;-58
2023/05/17 00:58:11;;;;;;;;;;;;;;;9.63;94.91;100612.28;5072155;28;19917;-58
2023/05/17 01:00:37;;;;;;;;;;;;;;;9.63;95.87;100610.50;5089508;28;19927;-58
2023/05/17 01:03:02;;;;;;;;;;;;;;;9.61;95.83;100611.44;5092145;28;19921;-58
2023/05/17 01:05:28;;;;;;;;;;;;;;;9.59;95.48;100607.94;5091648;28;19970;-57
2023/05/17 01:07:54;;;;;;;;;;;;;;;9.53;95.83;100619.56;5092040;28;19915;-58
2023/05/17 01:10:20;;;;;;;;;;;;;;;9.51;95.99;100615.16;5090575;28;19923;-58
2023/05/17 01:12:54;;;;;;;;;;;;;;;9.50;95.80;100618.72;5091349;28;20002;-59
2023/05/17 01:15:46;;;;;;;;;;;;;;;9.49;95.62;100622.31;5090559;28;19912;-58
2023/05/17 01:18:16;;;;;;;;;;;;;;;9.46;95.71;100623.22;5088225;28;19978;-58
2023/05/17 01:20:46;;;;;;;;;;;;;;;9.42;95.53;100618.88;5091036;28;20295;-58
2023/05/17 01:23:11;;;;;;;;;;;;;;;9.43;96.34;100628.59;5092089;28;19916;-58
2023/05/17 01:25:52;;;;;;;;;;;;;;;9.42;95.98;100634.81;5091607;28;19920;-58
2023/05/17 01:28:19;;;;;;;;;;;;;;;9.41;96.52;100632.19;5091368;28;19927;-59
2023/05/17 01:30:46;;;;;;;;;;;;;;;9.40;96.51;100639.28;5091796;28;19926;-58
2023/05/17 01:33:11;;;;;;;;;;;;;;;9.41;96.58;100633.03;5090093;28;19919;-59
2023/05/17 01:35:36;;;;;;;;;;;;;;;9.38;96.50;100633.09;5091165;28;19929;-58
2023/05/17 01:38:02;;;;;;;;;;;;;;;9.35;96.39;100646.44;5091730;28;19919;-58
2023/05/17 01:40:27;;;;;;;;;;;;;;;9.30;95.99;100643.88;5090780;28;19962;-58
2023/05/17 01:42:59;;;;;;;;;;;;;;;9.26;96.30;100644.81;5091726;28;19920;-58
2023/05/17 01:45:46;;;;;;;;;;;;;;;9.26;96.95;100649.25;5090046;28;19923;-58
2023/05/17 01:48:11;;;;;;;;;;;;;;;9.18;96.48;100649.38;5078649;28;19920;-58
2023/05/17 01:50:37;;;;;;;;;;;;;;;9.12;96.84;100656.56;5090590;28;19916;-58
2023/05/17 01:53:21;;;;;;;;;;;;;;;9.11;97.11;100652.16;5086702;28;19919;-58
2023/05/17 01:55:49;;;;;;;;;;;;;;;9.11;96.77;100641.53;5083885;28;19964;-58
2023/05/17 01:58:15;;;;;;;;;;;;;;;9.05;96.83;100652.25;5079784;28;20364;-58
2023/05/17 02:00:42;;;;;;;;;;;;;;;9.07;96.87;100655.78;5091169;28;19951;-58
2023/05/17 02:03:11;;;;;;;;;;;;;;;9.04;96.99;100653.19;5090828;28;19920;-59
2023/05/17 02:05:36;;;;;;;;;;;;;;;9.00;97.25;100649.69;5088854;28;19915;-58
2023/05/17 02:08:01;;;;;;;;;;;;;;;8.97;97.15;100649.75;5090762;28;19916;-59
2023/05/17 02:10:27;;;;;;;;;;;;;;;8.98;97.36;100648.84;5089438;28;20468;-58
2023/05/17 02:12:52;;;;;;;;;;;;;;;8.98;97.40;100659.44;5075236;28;19916;-59
2023/05/17 02:15:17;;;;;;;;;;;;;;;9.00;97.23;100654.09;5070973;28;20268;-58
2023/05/17 02:17:43;;;;;;;;;;;;;;;8.97;97.35;100659.47;5090099;28;20011;-58
2023/05/17 02:20:09;;;;;;;;;;;;;;;8.93;97.75;100663.94;5089834;28;19995;-58
2023/05/17 02:22:34;;;;;;;;;;;;;;;8.93;97.70;100669.25;5088795;28;19920;-58
2023/05/17 02:25:00;;;;;;;;;;;;;;;8.91;98.00;100667.53;5080909;28;19916;-58
2023/05/17 02:27:25;;;;;;;;;;;;;;;8.92;97.82;100667.50;5089758;28;19919;-58
2023/05/17 02:29:50;;;;;;;;;;;;;;;8.90;98.20;100669.31;5089959;28;19916;-58
2023/05/17 02:32:15;;;;;;;;;;;;;;;8.89;98.14;100664.91;5089068;28;19943;-59
2023/05/17 02:34:41;;;;;;;;;;;;;;;8.92;98.28;100675.47;5090129;28;19927;-58
2023/05/17 02:37:06;;;;;;;;;;;;;;;8.95;98.26;100672.75;5089631;28;19920;-58
2023/05/17 02:39:32;;;;;;;;;;;;;;;8.94;98.35;100675.44;5090574;28;19959;-58
2023/05/17 02:41:57;;;;;;;;;;;;;;;8.95;98.42;100677.19;5090323;28;19916;-59
2023/05/17 02:44:22;;;;;;;;;;;;;;;8.90;98.82;100677.25;5089445;28;19927;-58
2023/05/17 02:46:47;;;;;;;;;;;;;;;8.92;99.14;100682.53;5090524;28;19922;-58
2023/05/17 02:49:13;;;;;;;;;;;;;;;8.93;99.41;100682.50;5089340;28;20287;-58
2023/05/17 02:51:38;;;;;;;;;;;;;;;9.01;98.89;100682.41;5090437;28;19920;-58
2023/05/17 02:54:03;;;;;;;;;;;;;;;9.03;99.03;100681.47;5090431;28;19916;-58
2023/05/17 02:56:29;;;;;;;;;;;;;;;9.02;99.08;100676.19;5088245;28;19953;-58
2023/05/17 02:58:56;;;;;;;;;;;;;;;9.03;99.14;100680.59;5084910;28;19932;-58
2023/05/17 03:01:22;;;;;;;;;;;;;;;9.03;99.23;100672.63;5065762;28;19924;-59
2023/05/17 03:03:47;;;;;;;;;;;;;;;8.99;99.07;100673.59;5068373;28;19922;-59
2023/05/17 03:06:12;;;;;;;;;;;;;;;8.98;99.18;100682.44;5067458;28;19938;-58
2023/05/17 03:08:38;;;;;;;;;;;;;;;8.96;99.34;100678.97;5068663;28;19951;-59
2023/05/17 03:11:03;;;;;;;;;;;;;;;8.98;99.57;100688.63;5069473;28;20363;-59
2023/05/17 03:13:28;;;;;;;;;;;;;;;8.97;99.77;100683.34;5069680;28;19920;-58
2023/05/17 03:16:28;;;;;;;;;;;;;;;8.80;99.94;100682.72;5069058;28;19944;-58
2023/05/17 03:18:53;;;;;;;;;;;;;;;8.93;99.99;100679.88;5049797;28;19917;-58
2023/05/17 03:21:18;;;;;;;;;;;;;;;8.94;100.00;100686.94;5049607;28;19932;-58
2023/05/17 03:23:43;;;;;;;;;;;;;;;8.97;100.00;100691.31;5049609;28;19913;-58
2023/05/17 03:26:09;;;;;;;;;;;;;;;9.03;100.00;100691.19;5061202;28;19920;-58
2023/05/17 03:28:34;;;;;;;;;;;;;;;8.99;100.00;100690.41;5069463;28;19932;-58
2023/05/17 03:30:59;;;;;;;;;;;;;;;8.98;100.00;100687.75;5067795;28;19951;-58
2023/05/17 03:33:25;;;;;;;;;;;;;;;8.95;100.00;100691.34;5069681;28;20366;-58
2023/05/17 03:35:50;;;;;;;;;;;;;;;8.94;100.00;100689.59;5069386;28;20340;-58
2023/05/17 03:38:16;;;;;;;;;;;;;;;8.91;100.00;100694.06;5069468;28;19912;-58
2023/05/17 03:40:41;;;;;;;;;;;;;;;8.90;100.00;100694.94;5068564;28;19921;-58
2023/05/17 03:43:06;;;;;;;;;;;;;;;8.86;100.00;100702.06;5069690;28;19970;-58
2023/05/17 03:45:31;;;;;;;;;;;;;;;8.86;100.00;100701.22;5068522;28;19920;-58
2023/05/17 03:47:57;;;;;;;;;;;;;;;8.87;100.00;100706.50;5069242;28;19920;-58
2023/05/17 03:50:22;;;;;;;;;;;;;;;8.90;100.00;100711.75;5069458;28;20003;-58
2023/05/17 03:52:47;;;;;;;;;;;;;;;8.92;100.00;100717.03;5067936;28;20026;-58
2023/05/17 03:55:12;;;;;;;;;;;;;;;8.92;100.00;100717.03;5064889;28;19924;-58
2023/05/17 03:57:38;;;;;;;;;;;;;;;8.93;100.00;100717.00;5072214;28;20392;-58
2023/05/17 04:00:08;;;;;;;;;;;;;;;8.98;100.00;100724.88;5086266;28;20040;-58
2023/05/17 04:02:33;;;;;;;;;;;;;;;8.99;100.00;100716.06;5092614;28;19919;-58
2023/05/17 04:04:58;;;;;;;;;;;;;;;9.01;100.00;100716.91;5089873;28;19994;-58
2023/05/17 04:07:23;;;;;;;;;;;;;;;9.02;100.00;100716.88;5082222;28;19927;-58
2023/05/17 04:09:49;;;;;;;;;;;;;;;9.02;100.00;100723.97;5079292;28;19924;-58
2023/05/17 04:12:14;;;;;;;;;;;;;;;9.05;100.00;100716.84;5088514;28;19920;-58
2023/05/17 04:14:40;;;;;;;;;;;;;;;9.11;100.00;100726.44;5082713;28;19956;-59
2023/05/17 04:17:05;;;;;;;;;;;;;;;9.14;100.00;100723.78;5087818;28;19973;-58
2023/05/17 04:19:30;;;;;;;;;;;;;;;9.19;100.00;100724.59;5082871;28;19916;-58
2023/05/17 04:21:56;;;;;;;;;;;;;;;9.21;100.00;100733.38;5084223;28;19997;-57
2023/05/17 04:24:21;;;;;;;;;;;;;;;9.24;100.00;100736.88;5092051;28;20319;-58
2023/05/17 04:26:46;;;;;;;;;;;;;;;9.28;100.00;100733.28;5087621;28;20001;-59
2023/05/17 04:29:11;;;;;;;;;;;;;;;9.31;100.00;100737.63;5091317;28;20012;-59
2023/05/17 04:31:37;;;;;;;;;;;;;;;9.38;100.00;100736.66;5087505;28;20265;-59
2023/05/17 04:34:02;;;;;;;;;;;;;;;9.46;100.00;100744.47;5091282;28;19916;-59
2023/05/17 04:36:28;;;;;;;;;;;;;;;9.48;100.00;100740.03;5090418;28;20403;-59
2023/05/17 04:38:54;;;;;;;;;;;;;;;9.57;100.00;100751.38;5090025;28;19939;-59
2023/05/17 04:41:19;;;;;;;;;;;;;;;9.68;100.00;100756.50;5086863;28;19955;-59
2023/05/17 04:43:45;;;;;;;;;;;;;;;9.77;100.00;100757.22;5088725;28;20353;-59
2023/05/17 04:46:10;;;;;;;;;;;;;;;9.87;100.00;100757.91;5086694;28;19920;-59
2023/05/17 04:48:37;;;;;;;;;;;;;;;10.01;100.00;100756.78;5088048;28;20364;-59
2023/05/17 04:51:03;;;;;;;;;;;;;;;10.16;100.00;100759.19;5088706;28;19919;-59
2023/05/17 04:53:29;;;;;;;;;;;;;;;10.27;100.00;100765.19;5066643;28;19924;-60
2023/05/17 04:55:55;;;;;;;;;;;;;;;10.40;99.75;100753.38;5080848;28;20446;-60
2023/05/17 04:58:20;;;;;;;;;;;;;;;10.53;100.00;100765.53;5088820;28;19920;-59
2023/05/17 05:00:45;;;;;;;;;;;;;;;10.65;99.25;100761.75;5087377;28;20688;-59
2023/05/17 05:03:11;;;;;;;;;;;;;;;10.76;99.10;100767.69;5090628;28;20443;-59
2023/05/17 05:05:36;;;;;;;;;;;;;;;10.86;99.35;100773.69;5077633;28;19920;-60
2023/05/17 05:08:01;;;;;;;;;;;;;;;10.98;98.74;100765.44;5088385;28;20030;-60
2023/05/17 05:10:29;;;;;;;;;;;;;;;11.10;98.04;100765.19;5089270;28;19924;-59
2023/05/17 05:12:55;;;;;;;;;;;;;;;11.16;97.22;100773.91;5075024;28;19928;-60
2023/05/17 05:15:20;;;;;;;;;;;;;;;11.29;96.79;100779.81;5091125;28;19920;-58
2023/05/17 05:17:45;;;;;;;;;;;;;;;11.39;96.63;100779.56;5091316;28;20006;-58
2023/05/17 05:20:11;;;;;;;;;;;;;;;11.50;95.49;100785.50;5092419;28;19912;-58
2023/05/17 05:22:36;;;;;;;;;;;;;;;11.60;94.10;100784.38;5084171;28;19959;-58
2023/05/17 05:25:01;;;;;;;;;;;;;;;11.73;93.40;100787.63;5090229;28;19916;-59
2023/05/17 05:27:27;;;;;;;;;;;;;;;11.93;92.16;100788.00;5090054;28;20295;-59
2023/05/17 05:29:53;;;;;;;;;;;;;;;12.08;91.20;100797.41;5078190;28;19974;-59
2023/05/17 05:32:18;;;;;;;;;;;;;;;12.27;89.92;100794.22;5078510;28;20037;-59
2023/05/17 05:34:43;;;;;;;;;;;;;;;12.42;88.71;100799.13;5078275;28;20024;-59
2023/05/17 05:37:09;;;;;;;;;;;;;;;12.48;86.66;100801.63;5090659;28;19924;-59
2023/05/17 05:39:34;;;;;;;;;;;;;;;12.65;85.83;100802.00;5091950;28;19923;-59
2023/05/17 05:42:00;;;;;;;;;;;;;;;12.72;84.15;100802.72;5091554;28;20691;-59
2023/05/17 05:44:25;;;;;;;;;;;;;;;12.82;82.88;100799.75;5091757;28;20026;-58
2023/05/17 05:46:50;;;;;;;;;;;;;;;12.86;81.05;100801.41;5090530;28;20054;-59
2023/05/17 05:49:15;;;;;;;;;;;;;;;12.80;81.13;100806.91;5091250;28;20283;-59
2023/05/17 05:51:41;;;;;;;;;;;;;;;12.84;80.93;100808.59;5089023;28;19916;-59
2023/05/17 05:54:06;;;;;;;;;;;;;;;13.04;80.77;100808.03;5091122;28;19927;-59
2023/05/17 05:56:31;;;;;;;;;;;;;;;13.14;80.69;100802.38;5090692;28;19916;-59
2023/05/17 05:58:57;;;;;;;;;;;;;;;12.87;77.73;100787.13;5091076;28;19973;-59
2023/05/17 06:01:24;;;;;;;;;;;;;;;13.02;77.43;100816.09;5090592;28;19920;-59
2023/05/17 06:03:49;;;;;;;;;;;;;;;13.24;78.59;100824.34;5091132;28;19920;-59
2023/05/17 06:06:17;;;;;;;;;;;;;;;13.29;76.56;100821.53;5072669;28;20382;-59
2023/05/17 06:08:44;;;;;;;;;;;;;;;13.36;75.65;100820.41;5090202;28;20462;-59
2023/05/17 06:11:09;;;;;;;;;;;;;;;13.58;75.57;100833.03;5091009;28;20019;-59
2023/05/17 06:13:35;;;;;;;;;;;;;;;13.67;74.00;100834.56;5081195;28;20356;-59
2023/05/17 06:16:00;;;;;;;;;;;;;;;13.71;76.11;100830.84;5070773;28;20001;-59
2023/05/17 06:18:25;;;;;;;;;;;;;;;13.95;74.86;100827.38;5077013;28;20709;-59
2023/05/17 06:20:50;;;;;;;;;;;;;;;14.12;73.34;100828.56;5088887;28;19958;-59
2023/05/17 06:23:16;;;;;;;;;;;;;;;14.39;73.62;100834.78;5090759;28;20340;-59
2023/05/17 06:25:41;;;;;;;;;;;;;;;14.41;71.22;100835.63;5084934;28;19917;-59
2023/05/17 06:28:08;;;;;;;;;;;;;;;14.44;69.52;100835.50;5080674;28;20401;-59
2023/05/17 06:30:33;;;;;;;;;;;;;;;14.68;71.42;100837.28;5085766;28;19917;-59
2023/05/17 06:32:58;;;;;;;;;;;;;;;14.77;70.18;100836.09;5075797;28;19920;-59
2023/05/17 06:35:24;;;;;;;;;;;;;;;14.91;70.02;100834.66;5089963;28;20296;-59
2023/05/17 06:37:49;;;;;;;;;;;;;;;14.81;67.78;100835.91;5089598;28;19920;-59
2023/05/17 06:40:14;;;;;;;;;;;;;;;14.90;68.75;100845.44;5089179;28;19923;-59
2023/05/17 06:42:39;;;;;;;;;;;;;;;14.83;68.24;100838.53;5089851;28;20360;-59
2023/05/17 06:45:05;;;;;;;;;;;;;;;15.02;68.97;100843.19;5089138;28;19923;-59
2023/05/17 06:47:30;;;;;;;;;;;;;;;15.04;66.83;100843.97;5070288;28;19916;-59
2023/05/17 06:49:56;;;;;;;;;;;;;;;15.24;68.06;100845.91;5070218;28;19912;-59
2023/05/17 06:52:21;;;;;;;;;;;;;;;15.33;67.89;100851.81;5087970;28;20020;-59
2023/05/17 06:54:46;;;;;;;;;;;;;;;15.42;67.54;100846.09;5090366;28;20268;-59
2023/05/17 06:57:11;;;;;;;;;;;;;;;15.52;65.31;100852.84;5089201;28;19924;-59
2023/05/17 06:59:37;;;;;;;;;;;;;;;15.66;65.99;100850.50;5089893;28;20306;-59
2023/05/17 07:02:02;;;;;;;;;;;;;;;15.52;64.99;100847.50;5090104;28;19916;-59
2023/05/17 07:04:28;;;;;;;;;;;;;;;15.19;63.72;100859.47;5078156;28;19920;-59
2023/05/17 07:06:53;;;;;;;;;;;;;;;15.24;64.62;100851.25;5084383;28;20014;-59
2023/05/17 07:09:19;;;;;;;;;;;;;;;15.36;65.82;100862.41;5089576;28;19924;-59
2023/05/17 07:11:45;;;;;;;;;;;;;;;15.45;63.75;100854.00;5089884;28;19920;-59
2023/05/17 07:14:10;;;;;;;;;;;;;;;15.53;63.03;100853.72;5090497;28;19912;-59
2023/05/17 07:16:35;;;;;;;;;;;;;;;15.41;64.78;100859.56;5090223;28;19958;-59
2023/05/17 07:19:00;;;;;;;;;;;;;;;15.56;65.42;100862.53;5088825;28;19916;-59
2023/05/17 07:21:26;;;;;;;;;;;;;;;15.69;62.64;100865.59;5089461;28;19912;-59
2023/05/17 07:23:51;;;;;;;;;;;;;;;15.82;64.00;100870.41;5087729;28;20489;-59
2023/05/17 07:26:18;;;;;;;;;;;;;;;16.05;64.21;100874.84;5088837;28;19923;-59
2023/05/17 07:28:43;;;;;;;;;;;;;;;16.31;61.89;100871.06;5087824;28;19916;-58
2023/05/17 07:31:08;;;;;;;;;;;;;;;16.62;60.86;100877.75;5086554;28;19928;-59
2023/05/17 07:33:34;;;;;;;;;;;;;;;16.76;58.52;100879.84;5087258;28;19916;-59
2023/05/17 07:35:59;;;;;;;;;;;;;;;16.71;57.11;100879.19;5087192;28;19928;-59
2023/05/17 07:38:24;;;;;;;;;;;;;;;16.93;59.48;100871.91;5088818;28;20248;-59
2023/05/17 07:40:50;;;;;;;;;;;;;;;17.45;57.41;100882.06;5087636;28;19912;-59
2023/05/17 07:43:15;;;;;;;;;;;;;;;17.41;56.69;100885.81;5089129;28;19920;-58
2023/05/17 07:45:42;;;;;;;;;;;;;;;16.89;56.01;100881.94;5089724;28;19999;-59
2023/05/17 07:48:07;;;;;;;;;;;;;;;16.70;57.28;100882.81;5089030;28;19989;-59
2023/05/17 07:50:32;;;;;;;;;;;;;;;16.76;60.28;100885.22;5079490;28;19920;-59
2023/05/17 07:52:58;;;;;;;;;;;;;;;16.88;58.71;100868.56;5075735;28;19916;-58
2023/05/17 07:55:23;;;;;;;;;;;;;;;16.80;58.55;100876.09;5088749;28;19924;-58
2023/05/17 07:57:48;;;;;;;;;;;;;;;16.77;59.44;100881.63;5088823;28;20317;-59
2023/05/17 08:00:14;;;;;;;;;;;;;;;16.31;58.15;100876.44;5071489;28;20328;-58
2023/05/17 08:02:39;;;;;;;;;;;;;;;15.86;60.35;100878.34;5067745;28;19924;-58
2023/05/17 08:05:06;;;;;;;;;;;;;;;15.96;59.46;100880.59;5066638;28;20027;-60
2023/05/17 08:07:31;;;;;;;;;;;;;;;16.73;58.05;100877.31;5067748;28;19952;-59
2023/05/17 08:09:56;;;;;;;;;;;;;;;17.43;56.31;100874.97;5066936;28;19959;-59
2023/05/17 08:12:22;;;;;;;;;;;;;;;17.63;54.62;100875.81;5068590;28;19920;-60
2023/05/17 08:14:47;;;;;;;;;;;;;;;17.06;56.48;100874.00;5069360;28;19916;-60
2023/05/17 08:17:12;;;;;;;;;;;;;;;17.52;58.37;100871.88;5054320;28;19913;-60
2023/05/17 08:19:37;;;;;;;;;;;;;;;17.81;55.47;100869.53;5062066;28;19916;-59
2023/05/17 08:22:03;;;;;;;;;;;;;;;18.24;52.53;100863.78;5067212;28;19921;-60
2023/05/17 08:24:28;;;;;;;;;;;;;;;18.41;52.26;100872.84;5068431;28;19916;-60
2023/05/17 08:26:54;;;;;;;;;;;;;;;18.82;53.30;100863.50;5067406;28;19951;-59
2023/05/17 08:29:19;;;;;;;;;;;;;;;19.34;52.70;100865.19;5062372;28;20345;-60
2023/05/17 08:31:44;;;;;;;;;;;;;;;19.54;50.10;100862.22;5053090;28;19934;-59
2023/05/17 08:34:10;;;;;;;;;;;;;;;19.24;49.49;100858.50;5068079;28;19916;-59
2023/05/17 08:36:35;;;;;;;;;;;;;;;18.85;51.04;100855.22;5067960;28;19959;-59
2023/05/17 08:39:00;;;;;;;;;;;;;;;18.29;52.88;100859.03;5067441;28;20054;-59
2023/05/17 08:41:26;;;;;;;;;;;;;;;17.86;53.50;100872.00;5068657;28;19922;-60
2023/05/17 08:43:52;;;;;;;;;;;;;;;17.38;52.49;100864.41;5070955;28;19963;-60
2023/05/17 08:46:22;;;;;;;;;;;;;;;17.24;54.52;100866.88;5071613;28;20007;-60
2023/05/17 08:48:51;;;;;;;;;;;;;;;16.97;57.53;100852.00;5072254;28;19920;-60
2023/05/17 08:51:18;;;;;;;;;;;;;;;16.80;57.76;100868.03;5072321;28;19912;-60
2023/05/17 08:53:46;;;;;;;;;;;;;;;16.42;58.59;100871.47;5071516;28;20692;-59
2023/05/17 08:56:13;;;;;;;;;;;;;;;16.38;57.25;100859.13;5068771;28;20007;-59
2023/05/17 08:58:41;;;;;;;;;;;;;;;16.19;57.06;100866.22;5072049;28;19962;-60
2023/05/17 09:01:07;;;;;;;;;;;;;;;16.06;57.77;100865.88;5071842;28;20013;-59
2023/05/17 09:03:33;;;;;;;;;;;;;;;16.26;60.69;100859.66;5061038;28;19921;-60
2023/05/17 09:05:59;;;;;;;;;;;;;;;16.11;57.41;100857.63;5051110;28;19916;-59
2023/05/17 09:08:25;;;;;;;;;;;;;;;15.77;59.38;100863.47;5062484;28;19921;-60
2023/05/17 09:10:51;;;;;;;;;;;;;;;15.97;58.81;100857.28;5052815;28;19995;-59
2023/05/17 09:13:16;;;;;;;;;;;;;;;16.25;58.74;100864.16;5070297;28;20018;-59
2023/05/17 09:15:42;;;;;;;;;;;;;;;16.55;59.81;100864.69;5069776;28;19920;-59
2023/05/17 09:18:09;;;;;;;;;;;;;;;16.61;57.61;100869.78;5070835;28;19916;-59
2023/05/17 09:20:35;;;;;;;;;;;;;;;16.75;56.80;100859.31;5071070;28;19920;-59
2023/05/17 09:23:04;;;;;;;;;;;;;;;16.69;55.90;100868.50;5071163;28;20379;-60
2023/05/17 09:25:30;;;;;;;;;;;;;;;16.72;56.93;100859.44;5070321;28;20064;-59
2023/05/17 09:27:59;;;;;;;;;;;;;;;16.83;57.53;100860.72;5071961;28;19912;-57
2023/05/17 09:30:28;;;;;;;;;;;;;;;16.75;55.03;100851.25;5071535;28;19927;-57
2023/05/17 09:32:54;;;;;;;;;;;;;;;16.72;56.51;100859.44;5071129;28;20706;-58
2023/05/17 09:35:26;;;;;;;;;;;;;;;17.12;57.81;100859.38;5071699;28;20019;-58
2023/05/17 09:37:51;;;;;;;;;;;;;;;17.30;56.00;100855.00;5071052;28;19917;-58
2023/05/17 09:40:24;;;;;;;;;;;;;;;17.52;55.19;100856.63;5071937;28;19920;-59
2023/05/17 09:42:49;;;;;;;;;;;;;;;17.77;55.47;100857.19;5071263;28;19916;-58
2023/05/17 09:45:20;;;;;;;;;;;;;;;17.70;54.10;100863.81;5070430;28;19920;-58
2023/05/17 09:47:46;;;;;;;;;;;;;;;17.75;52.01;100856.38;5071362;28;19916;-58
2023/05/17 09:50:16;;;;;;;;;;;;;;;17.79;51.98;100855.28;5069632;28;19955;-59
2023/05/17 09:52:41;;;;;;;;;;;;;;;18.48;52.43;100856.31;5068887;28;20058;-59
2023/05/17 09:55:08;;;;;;;;;;;;;;;19.58;53.15;100861.09;5070434;28;20018;-58
2023/05/17 09:57:37;;;;;;;;;;;;;;;20.08;45.54;100859.06;5070540;28;19981;-58
2023/05/17 10:00:08;;;;;;;;;;;;;;;19.88;44.21;100866.59;5084303;28;19950;-59
2023/05/17 10:02:35;;;;;;;;;;;;;;;19.40;45.91;100854.91;5090495;28;19981;-58
2023/05/17 10:05:04;;;;;;;;;;;;;;;18.95;43.72;100867.28;5091140;28;20453;-58
2023/05/17 10:07:30;;;;;;;;;;;;;;;18.94;46.79;100858.34;5090463;28;19920;-58
2023/05/17 10:09:58;;;;;;;;;;;;;;;18.67;47.84;100856.19;5089254;28;21609;-58
2023/05/17 10:12:26;;;;;;;;;;;;;;;18.97;50.14;100846.50;5080430;28;19916;-59
2023/05/17 10:14:54;;;;;;;;;;;;;;;19.19;48.45;100847.09;5082795;28;19924;-59
2023/05/17 10:17:20;;;;;;;;;;;;;;;19.34;45.95;100843.59;5084439;28;19921;-59
2023/05/17 10:19:46;;;;;;;;;;;;;;;19.91;48.84;100844.81;5070724;28;19916;-59
2023/05/17 10:22:12;;;;;;;;;;;;;;;20.64;45.15;100834.97;5070877;28;19978;-59
2023/05/17 10:24:37;;;;;;;;;;;;;;;21.24;43.04;100838.47;5088706;28;20002;-59
2023/05/17 10:27:03;;;;;;;;;;;;;;;21.29;42.87;100838.16;5090880;28;19911;-59
2023/05/17 10:29:30;;;;;;;;;;;;;;;20.98;42.64;100851.88;5089808;28;20006;-59
2023/05/17 10:31:56;;;;;;;;;;;;;;;20.45;43.18;100847.00;5090937;28;19920;-59
2023/05/17 10:34:22;;;;;;;;;;;;;;;19.70;45.89;100846.94;5090789;28;20018;-59
2023/05/17 10:36:48;;;;;;;;;;;;;;;19.67;44.75;100847.94;5082354;28;20015;-58
2023/05/17 10:39:14;;;;;;;;;;;;;;;19.86;45.83;100847.78;5084810;28;19986;-59
2023/05/17 10:41:42;;;;;;;;;;;;;;;19.96;44.87;100853.53;5090594;28;19943;-59
2023/05/17 10:44:11;;;;;;;;;;;;;;;19.81;45.05;100844.47;5091220;28;20051;-59
2023/05/17 10:46:36;;;;;;;;;;;;;;;19.92;45.25;100846.56;5090590;28;19963;-59
2023/05/17 10:49:01;;;;;;;;;;;;;;;19.92;45.63;100844.72;5089743;28;20405;-59
2023/05/17 10:51:31;;;;;;;;;;;;;;;19.86;46.03;100864.00;5090498;28;20026;-58
2023/05/17 10:54:02;;;;;;;;;;;;;;;19.67;44.80;100851.63;5090305;28;19997;-59
2023/05/17 10:56:29;;;;;;;;;;;;;;;19.63;47.49;100850.91;5089140;28;19966;-58
2023/05/17 10:59:13;;;;;;;;;;;;;;;20.01;47.61;100855.00;5080047;28;19925;-59
2023/05/17 11:01:53;;;;;;;;;;;;;;;20.23;45.27;100852.81;5070395;28;19969;-58
2023/05/17 11:04:38;;;;;;;;;;;;;;;20.26;44.91;100849.06;5069628;28;19923;-59
2023/05/17 11:07:16;;;;;;;;;;;;;;;20.24;45.85;100849.16;5084509;28;20010;-59
2023/05/17 11:09:42;;;;;;;;;;;;;;;19.87;45.22;100851.38;5090615;28;19921;-59
2023/05/17 11:12:09;;;;;;;;;;;;;;;19.43;44.44;100853.84;5089566;28;20011;-59
2023/05/17 11:14:43;;;;;;;;;;;;;;;18.83;45.45;100846.38;5090855;28;19927;-58
2023/05/17 11:17:13;;;;;;;;;;;;;;;17.96;46.93;100847.25;5090184;28;19919;-58
2023/05/17 11:19:47;;;;;;;;;;;;;;;17.95;48.33;100841.94;5090035;28;19912;-59
2023/05/17 11:22:14;;;;;;;;;;;;;;;18.04;50.12;100850.44;5089510;28;19916;-59
2023/05/17 11:24:42;;;;;;;;;;;;;;;17.85;48.83;100846.91;5090047;28;19989;-58
2023/05/17 11:27:08;;;;;;;;;;;;;;;17.66;48.64;100846.06;5089316;28;20702;-58
2023/05/17 11:29:33;;;;;;;;;;;;;;;17.61;48.80;100847.25;5090349;28;19927;-59
2023/05/17 11:32:04;;;;;;;;;;;;;;;17.65;48.29;100851.50;5090477;28;19920;-58
2023/05/17 11:34:31;;;;;;;;;;;;;;;17.72;48.76;100853.84;5090454;28;20445;-58
2023/05/17 11:36:57;;;;;;;;;;;;;;;18.10;50.20;100852.81;5089126;28;19959;-58
2023/05/17 11:39:23;;;;;;;;;;;;;;;18.16;50.22;100849.81;5090140;28;19947;-58
2023/05/17 11:41:50;;;;;;;;;;;;;;;18.11;50.31;100851.00;5089181;28;19919;-58
2023/05/17 11:44:23;;;;;;;;;;;;;;;18.04;48.59;100853.13;5090100;28;19920;-59
2023/05/17 11:46:49;;;;;;;;;;;;;;;18.19;49.49;100838.91;5089886;28;19935;-59
2023/05/17 11:49:14;;;;;;;;;;;;;;;18.48;51.22;100847.34;5075486;28;20269;-58
2023/05/17 11:51:41;;;;;;;;;;;;;;;18.71;52.22;100841.63;5079526;28;19920;-58
2023/05/17 11:54:07;;;;;;;;;;;;;;;18.71;48.32;100847.03;5089963;28;19927;-58
2023/05/17 11:56:33;;;;;;;;;;;;;;;18.73;47.92;100847.81;5088895;28;20296;-58
2023/05/17 11:58:59;;;;;;;;;;;;;;;18.95;48.19;100841.19;5089923;28;19927;-58
2023/05/17 12:01:24;;;;;;;;;;;;;;;19.11;47.28;100842.09;5090282;28;20364;-59
2023/05/17 12:03:59;;;;;;;;;;;;;;;19.28;47.75;100836.66;5090697;28;20284;-59
2023/05/17 12:06:27;;;;;;;;;;;;;;;19.39;49.17;100841.47;5089106;28;19916;-58
2023/05/17 12:08:53;;;;;;;;;;;;;;;19.34;48.18;100846.28;5089575;28;19919;-58
2023/05/17 12:11:19;;;;;;;;;;;;;;;19.01;47.01;100840.00;5070587;28;19916;-58
2023/05/17 12:13:47;;;;;;;;;;;;;;;18.68;47.55;100844.50;5088290;28;19916;-58
2023/05/17 12:16:14;;;;;;;;;;;;;;;18.42;47.87;100844.97;5090599;28;19961;-57
2023/05/17 12:18:40;;;;;;;;;;;;;;;18.18;49.92;100841.66;5092887;28;19973;-57
2023/05/17 12:21:06;;;;;;;;;;;;;;;17.98;48.54;100845.38;5093826;28;19915;-57
2023/05/17 12:23:35;;;;;;;;;;;;;;;17.78;49.70;100840.09;5093255;28;20287;-58
2023/05/17 12:26:05;;;;;;;;;;;;;;;17.67;49.41;100844.25;5093308;28;20001;-57
2023/05/17 12:28:30;;;;;;;;;;;;;;;17.62;50.58;100840.91;5092752;28;19931;-57
2023/05/17 12:31:01;;;;;;;;;;;;;;;17.57;49.03;100837.56;5093449;28;19916;-58
2023/05/17 12:33:28;;;;;;;;;;;;;;;17.77;50.16;100841.03;5093059;28;19916;-57
2023/05/17 12:35:54;;;;;;;;;;;;;;;17.80;48.77;100848.09;5091968;28;20010;-58